createdAt,value
2018-03-21T00:02:02.960Z,31.63
2018-03-21T00:04:29.427Z,28.97
2018-03-21T00:06:55.844Z,24.73
2018-03-21T00:09:22.308Z,24.23
2018-03-21T00:11:48.756Z,24.70
2018-03-21T00:14:15.140Z,26.07
2018-03-21T00:16:42.455Z,24.30
2018-03-21T00:19:09.025Z,25.20
2018-03-21T00:21:35.384Z,22.30
2018-03-21T00:24:01.753Z,22.63
2018-03-21T00:26:28.154Z,26.97
2018-03-21T00:28:54.565Z,22.07
2018-03-21T00:31:20.954Z,24.23
2018-03-21T00:33:47.312Z,20.33
2018-03-21T00:36:13.710Z,19.47
2018-03-21T00:38:40.254Z,22.17
2018-03-21T00:41:06.625Z,20.90
2018-03-21T00:43:32.972Z,20.80
2018-03-21T00:45:59.393Z,20.93
2018-03-21T00:48:25.837Z,18.03
2018-03-21T00:50:52.249Z,21.57
2018-03-21T00:53:18.599Z,26.87
2018-03-21T00:55:45.081Z,23.33
2018-03-21T00:58:11.454Z,21.47
2018-03-21T01:00:37.937Z,21.20
2018-03-21T01:03:04.349Z,21.93
2018-03-21T01:05:30.725Z,21.47
2018-03-21T01:07:57.173Z,21.23
2018-03-21T01:10:23.551Z,20.40
2018-03-21T01:12:49.963Z,19.50
2018-03-21T01:15:16.403Z,21.90
2018-03-21T01:17:42.818Z,20.83
2018-03-21T01:20:09.250Z,26.53
2018-03-21T01:22:35.693Z,19.20
2018-03-21T01:25:02.066Z,21.50
2018-03-21T01:27:28.521Z,21.27
2018-03-21T01:29:54.885Z,19.93
2018-03-21T01:32:21.299Z,20.77
2018-03-21T01:34:47.701Z,21.73
2018-03-21T01:37:14.152Z,21.23
2018-03-21T01:39:40.571Z,20.17
2018-03-21T01:42:06.989Z,21.43
2018-03-21T01:44:33.406Z,18.90
2018-03-21T01:46:59.860Z,20.73
2018-03-21T01:49:26.216Z,20.13
2018-03-21T01:51:52.596Z,19.90
2018-03-21T01:54:18.989Z,20.60
2018-03-21T01:56:45.396Z,20.33
2018-03-21T01:59:11.902Z,19.83
2018-03-21T02:01:38.325Z,20.90
2018-03-21T02:04:04.721Z,19.87
2018-03-21T02:06:31.082Z,19.80
2018-03-21T02:08:57.477Z,17.73
2018-03-21T02:11:23.930Z,17.67
2018-03-21T02:13:50.321Z,17.80
2018-03-21T02:16:16.752Z,16.67
2018-03-21T02:18:43.136Z,19.50
2018-03-21T02:21:09.497Z,18.30
2018-03-21T02:23:35.894Z,20.27
2018-03-21T02:26:02.289Z,19.33
2018-03-21T02:28:28.701Z,20.03
2018-03-21T02:30:55.141Z,21.27
2018-03-21T02:33:21.604Z,18.90
2018-03-21T02:35:48.050Z,20.10
2018-03-21T02:38:14.405Z,18.07
2018-03-21T02:40:40.791Z,18.97
2018-03-21T02:43:07.165Z,20.10
2018-03-21T02:45:33.619Z,18.63
2018-03-21T02:48:00.041Z,18.00
2018-03-21T02:50:26.521Z,18.93
2018-03-21T02:52:52.966Z,17.70
2018-03-21T02:55:19.329Z,16.70
2018-03-21T02:57:45.862Z,16.80
2018-03-21T03:00:12.372Z,19.77
2018-03-21T03:02:38.782Z,20.80
2018-03-21T03:05:05.175Z,20.93
2018-03-21T03:07:31.514Z,20.73
2018-03-21T03:09:57.957Z,20.27
2018-03-21T03:12:24.362Z,19.97
2018-03-21T03:14:50.790Z,19.00
2018-03-21T03:17:17.699Z,23.40
2018-03-21T03:19:44.333Z,19.17
2018-03-21T03:22:10.717Z,26.20
2018-03-21T03:24:37.093Z,29.73
2018-03-21T03:27:03.505Z,24.93
2018-03-21T03:29:29.918Z,25.17
2018-03-21T03:31:56.342Z,23.27
2018-03-21T03:34:22.763Z,23.63
2018-03-21T03:36:49.214Z,24.27
2018-03-21T03:39:15.697Z,23.90
2018-03-21T03:41:42.154Z,20.83
2018-03-21T03:44:08.537Z,20.80
2018-03-21T03:46:34.966Z,16.77
2018-03-21T03:49:01.401Z,17.97
2018-03-21T03:51:27.814Z,16.40
2018-03-21T03:53:59.258Z,18.40
2018-03-21T03:56:25.709Z,16.73
2018-03-21T03:58:52.098Z,18.93
2018-03-21T04:01:18.484Z,17.40
2018-03-21T04:03:44.917Z,18.90
2018-03-21T04:06:11.290Z,16.03
2018-03-21T04:08:37.682Z,16.50
2018-03-21T04:11:04.206Z,15.60
2018-03-21T04:13:30.654Z,19.07
2018-03-21T04:15:57.195Z,18.37
2018-03-21T04:18:23.541Z,16.60
2018-03-21T04:20:49.952Z,17.63
2018-03-21T04:23:16.412Z,21.00
2018-03-21T04:25:42.795Z,23.87
2018-03-21T04:28:09.194Z,17.83
2018-03-21T04:30:35.572Z,18.00
2018-03-21T04:33:02.016Z,15.83
2018-03-21T04:35:28.434Z,19.67
2018-03-21T04:37:56.607Z,19.17
2018-03-21T04:40:23.059Z,17.00
2018-03-21T04:42:49.522Z,17.20
2018-03-21T04:45:15.954Z,17.17
2018-03-21T04:47:42.407Z,16.53
2018-03-21T04:50:08.893Z,26.13
2018-03-21T04:52:35.323Z,30.00
2018-03-21T04:55:01.814Z,37.20
2018-03-21T04:57:28.237Z,37.20
2018-03-21T04:59:54.684Z,40.67
2018-03-21T05:02:21.181Z,47.33
2018-03-21T05:04:47.574Z,43.60
2018-03-21T05:07:13.970Z,39.70
2018-03-21T05:09:40.361Z,44.80
2018-03-21T05:12:06.868Z,41.03
2018-03-21T05:14:33.254Z,43.77
2018-03-21T05:16:59.703Z,50.80
2018-03-21T05:19:26.053Z,66.37
2018-03-21T05:21:52.467Z,81.83
2018-03-21T05:24:18.889Z,56.83
2018-03-21T05:26:45.313Z,53.97
2018-03-21T05:29:11.789Z,53.27
2018-03-21T05:31:38.281Z,51.97
2018-03-21T05:34:04.654Z,48.30
2018-03-21T05:36:30.993Z,53.30
2018-03-21T05:38:57.382Z,48.80
2018-03-21T05:41:23.743Z,52.93
2018-03-21T05:43:50.152Z,52.70
2018-03-21T05:46:16.499Z,47.13
2018-03-21T05:48:42.899Z,47.67
2018-03-21T05:51:09.359Z,50.27
2018-03-21T05:53:35.817Z,40.20
2018-03-21T05:56:02.249Z,48.87
2018-03-21T05:58:28.601Z,50.60
2018-03-21T06:00:54.991Z,49.67
2018-03-21T06:03:22.273Z,49.10
2018-03-21T06:05:49.005Z,61.87
2018-03-21T06:08:15.370Z,48.03
2018-03-21T06:10:41.781Z,60.97
2018-03-21T06:13:08.143Z,59.93
2018-03-21T06:15:34.575Z,59.17
2018-03-21T06:18:01.476Z,55.07
2018-03-21T06:20:28.278Z,44.63
2018-03-21T06:22:54.713Z,46.70
2018-03-21T06:25:21.170Z,45.53
2018-03-21T06:27:47.812Z,40.33
2018-03-21T06:30:17.608Z,38.33
2018-03-21T06:32:45.472Z,37.33
2018-03-21T06:35:11.859Z,42.13
2018-03-21T06:37:38.267Z,43.20
2018-03-21T06:40:04.659Z,51.67
2018-03-21T06:42:32.119Z,58.50
2018-03-21T06:44:58.679Z,63.17
2018-03-21T06:47:25.088Z,73.37
2018-03-21T06:49:51.478Z,52.70
2018-03-21T06:52:17.996Z,55.20
2018-03-21T06:54:44.363Z,39.00
2018-03-21T06:57:10.736Z,47.50
2018-03-21T06:59:37.125Z,48.63
2018-03-21T07:02:03.570Z,51.47
2018-03-21T07:04:30.860Z,74.27
2018-03-21T07:06:57.330Z,60.30
2018-03-21T07:09:23.675Z,65.63
2018-03-21T07:11:50.232Z,64.90
2018-03-21T07:14:29.169Z,54.23
2018-03-21T07:16:57.691Z,55.20
2018-03-21T07:19:24.729Z,52.47
2018-03-21T07:21:51.673Z,62.27
2018-03-21T07:24:23.377Z,65.13
2018-03-21T07:26:53.800Z,65.67
2018-03-21T07:29:20.577Z,87.07
2018-03-21T07:31:49.346Z,63.00
2018-03-21T07:34:18.382Z,57.53
2018-03-21T07:36:46.363Z,50.60
2018-03-21T07:39:12.993Z,58.03
2018-03-21T07:41:39.502Z,121.77
2018-03-21T07:44:06.072Z,79.80
2018-03-21T07:46:32.529Z,57.57
2018-03-21T07:48:59.005Z,48.27
2018-03-21T07:51:25.414Z,56.60
2018-03-21T07:53:51.841Z,57.83
2018-03-21T07:56:18.250Z,54.63
2018-03-21T07:58:44.690Z,52.13
2018-03-21T08:01:11.291Z,50.77
2018-03-21T08:03:37.705Z,38.97
2018-03-21T08:06:04.137Z,47.23
2018-03-21T08:08:30.546Z,40.70
2018-03-21T08:10:57.412Z,38.03
2018-03-21T08:13:23.869Z,40.07
2018-03-21T08:15:50.303Z,46.23
2018-03-21T08:18:16.634Z,52.30
2018-03-21T08:20:43.146Z,69.00
2018-03-21T08:23:09.544Z,50.63
2018-03-21T08:25:36.009Z,48.73
2018-03-21T08:28:02.558Z,62.47
2018-03-21T08:30:28.957Z,42.13
2018-03-21T08:32:55.435Z,57.03
2018-03-21T08:35:21.825Z,52.77
2018-03-21T08:37:48.246Z,43.40
2018-03-21T08:40:14.829Z,39.53
2018-03-21T08:42:41.246Z,41.40
2018-03-21T08:45:07.621Z,59.50
2018-03-21T08:47:33.987Z,40.63
2018-03-21T08:50:00.362Z,36.07
2018-03-21T08:52:26.840Z,37.50
2018-03-21T08:54:53.297Z,40.07
2018-03-21T08:57:19.673Z,38.03
2018-03-21T08:59:46.122Z,35.00
2018-03-21T09:02:12.548Z,34.30
2018-03-21T09:04:38.967Z,36.83
2018-03-21T09:07:05.447Z,33.87
2018-03-21T09:09:31.838Z,32.33
2018-03-21T09:11:58.253Z,30.87
2018-03-21T09:14:24.777Z,29.07
2018-03-21T09:16:51.271Z,37.93
2018-03-21T09:19:17.756Z,37.40
2018-03-21T09:21:44.139Z,39.30
2018-03-21T09:24:10.537Z,31.87
2018-03-21T09:26:37.067Z,47.80
2018-03-21T09:29:03.489Z,34.10
2018-03-21T09:31:29.866Z,46.20
2018-03-21T09:33:56.339Z,43.47
2018-03-21T09:36:22.819Z,46.47
2018-03-21T09:38:49.213Z,41.13
2018-03-21T09:41:15.626Z,48.40
2018-03-21T09:43:42.033Z,41.00
2018-03-21T09:46:08.453Z,40.63
2018-03-21T09:48:34.822Z,36.37
2018-03-21T09:51:01.281Z,39.00
2018-03-21T09:53:27.687Z,33.83
2018-03-21T09:55:54.067Z,39.60
2018-03-21T09:58:20.442Z,39.83
2018-03-21T10:00:46.898Z,40.37
2018-03-21T10:03:13.294Z,44.73
2018-03-21T10:05:39.784Z,60.70
2018-03-21T10:08:06.255Z,48.77
2018-03-21T10:10:32.726Z,56.87
2018-03-21T10:12:59.083Z,51.33
2018-03-21T10:15:25.510Z,59.70
2018-03-21T10:17:51.897Z,116.87
2018-03-21T10:20:18.256Z,111.30
2018-03-21T10:22:45.347Z,77.63
2018-03-21T10:25:11.979Z,73.23
2018-03-21T10:27:38.425Z,65.97
2018-03-21T10:30:04.910Z,73.73
2018-03-21T10:32:31.592Z,66.50
2018-03-21T10:34:58.001Z,65.73
2018-03-21T10:37:24.482Z,74.13
2018-03-21T10:39:50.890Z,71.30
2018-03-21T10:42:17.359Z,71.00
2018-03-21T10:44:43.842Z,74.77
2018-03-21T10:47:11.201Z,65.33
2018-03-21T10:49:37.602Z,66.23
2018-03-21T10:52:04.005Z,60.77
2018-03-21T10:54:30.421Z,55.63
2018-03-21T10:56:56.845Z,62.77
2018-03-21T10:59:23.250Z,58.80
2018-03-21T11:01:55.754Z,52.83
2018-03-21T11:04:22.193Z,49.63
2018-03-21T11:06:48.605Z,54.10
2018-03-21T11:09:14.992Z,45.43
2018-03-21T11:11:41.431Z,49.67
2018-03-21T11:14:07.854Z,46.27
2018-03-21T11:16:34.225Z,46.30
2018-03-21T11:19:00.639Z,49.53
2018-03-21T11:21:27.310Z,44.47
2018-03-21T11:23:53.725Z,57.40
2018-03-21T11:26:20.168Z,46.53
2018-03-21T11:28:46.660Z,43.60
2018-03-21T11:31:13.065Z,43.23
2018-03-21T11:33:39.473Z,48.73
2018-03-21T11:36:05.873Z,47.17
2018-03-21T11:38:33.530Z,50.90
2018-03-21T11:41:00.218Z,48.47
2018-03-21T11:43:26.973Z,45.43
2018-03-21T11:45:53.667Z,47.53
2018-03-21T11:48:20.121Z,44.57
2018-03-21T11:50:46.654Z,50.60
2018-03-21T11:53:13.050Z,52.73
2018-03-21T11:55:39.466Z,48.93
2018-03-21T11:58:05.870Z,49.07
2018-03-21T12:00:32.363Z,50.27
2018-03-21T12:02:58.841Z,53.37
2018-03-21T12:05:25.258Z,48.27
2018-03-21T12:07:51.681Z,53.63
2018-03-21T12:10:18.165Z,58.27
2018-03-21T12:12:44.791Z,49.33
2018-03-21T12:15:11.214Z,48.77
2018-03-21T12:17:37.602Z,50.80
2018-03-21T12:20:04.041Z,55.83
2018-03-21T12:22:30.510Z,45.23
2018-03-21T12:24:56.932Z,47.27
2018-03-21T12:27:23.426Z,44.23
2018-03-21T12:29:49.837Z,52.03
2018-03-21T12:32:16.383Z,47.77
2018-03-21T12:34:42.781Z,41.90
2018-03-21T12:37:09.233Z,48.17
2018-03-21T12:39:35.784Z,45.37
2018-03-21T12:42:02.394Z,49.93
2018-03-21T12:44:28.784Z,46.43
2018-03-21T12:46:55.314Z,48.53
2018-03-21T12:49:21.718Z,44.90
2018-03-21T12:51:48.129Z,46.90
2018-03-21T12:54:14.530Z,44.67
2018-03-21T12:56:41.000Z,50.40
2018-03-21T12:59:07.550Z,59.57
2018-03-21T13:01:34.019Z,45.67
2018-03-21T13:04:00.492Z,50.37
2018-03-21T13:06:26.906Z,43.97
2018-03-21T13:08:53.378Z,47.27
2018-03-21T13:11:19.795Z,40.70
2018-03-21T13:13:46.489Z,45.97
2018-03-21T13:16:12.892Z,42.23
2018-03-21T13:18:39.378Z,42.47
2018-03-21T13:21:05.793Z,39.77
2018-03-21T13:23:32.318Z,41.77
2018-03-21T13:25:58.790Z,39.93
2018-03-21T13:28:25.213Z,39.00
2018-03-21T13:30:51.746Z,38.53
2018-03-21T13:33:18.203Z,37.90
2018-03-21T13:35:44.649Z,38.17
2018-03-21T13:38:11.134Z,38.50
2018-03-21T13:40:37.626Z,37.63
2018-03-21T13:43:04.156Z,36.90
2018-03-21T13:45:30.629Z,34.40
2018-03-21T13:47:57.113Z,35.90
2018-03-21T13:50:23.701Z,40.40
2018-03-21T13:52:50.342Z,39.80
2018-03-21T13:55:16.899Z,41.80
2018-03-21T13:57:43.282Z,37.67
2018-03-21T14:00:09.690Z,42.43
2018-03-21T14:02:36.158Z,40.00
2018-03-21T14:05:02.654Z,41.80
2018-03-21T14:07:29.237Z,37.23
2018-03-21T14:09:55.765Z,41.93
2018-03-21T14:12:22.266Z,48.60
2018-03-21T14:14:48.678Z,45.70
2018-03-21T14:17:15.066Z,44.00
2018-03-21T14:19:41.470Z,42.03
2018-03-21T14:22:07.874Z,44.50
2018-03-21T14:24:37.318Z,45.23
2018-03-21T14:27:04.298Z,46.57
2018-03-21T14:29:30.870Z,46.33
2018-03-21T14:31:57.446Z,48.60
2018-03-21T14:34:23.953Z,46.77
2018-03-21T14:36:50.391Z,51.37
2018-03-21T14:39:16.851Z,56.03
2018-03-21T14:41:43.290Z,52.30
2018-03-21T14:44:09.686Z,52.63
2018-03-21T14:46:36.174Z,51.17
2018-03-21T14:49:02.587Z,45.03
2018-03-21T14:51:29.006Z,42.60
2018-03-21T14:53:55.502Z,42.27
2018-03-21T14:56:22.046Z,43.33
2018-03-21T14:58:48.488Z,42.97
2018-03-21T15:01:14.903Z,45.50
2018-03-21T15:03:41.524Z,44.57
2018-03-21T15:06:07.933Z,49.50
2018-03-21T15:08:34.358Z,48.07
2018-03-21T15:11:00.795Z,43.23
2018-03-21T15:13:27.190Z,48.37
2018-03-21T15:15:53.567Z,40.90
2018-03-21T15:18:20.021Z,47.43
2018-03-21T15:20:46.528Z,41.87
2018-03-21T15:23:12.973Z,43.20
2018-03-21T15:25:39.445Z,46.87
2018-03-21T15:28:05.999Z,40.10
2018-03-21T15:30:32.458Z,42.90
2018-03-21T15:32:59.090Z,42.03
2018-03-21T15:35:25.558Z,42.33
2018-03-21T15:37:52.066Z,44.37
2018-03-21T15:40:18.450Z,51.07
2018-03-21T15:42:44.881Z,54.40
2018-03-21T15:45:11.344Z,48.67
2018-03-21T15:47:37.816Z,47.40
2018-03-21T15:50:04.346Z,46.43
2018-03-21T15:52:30.723Z,50.27
2018-03-21T15:54:57.158Z,48.27
2018-03-21T15:57:23.622Z,53.73
2018-03-21T15:59:50.354Z,56.63
2018-03-21T16:02:16.832Z,63.07
2018-03-21T16:04:43.255Z,64.67
2018-03-21T16:07:09.781Z,63.30
2018-03-21T16:09:36.161Z,59.43
2018-03-21T16:12:02.538Z,58.47
2018-03-21T16:14:29.029Z,56.93
2018-03-21T16:16:55.546Z,57.33
2018-03-21T16:19:21.954Z,55.80
2018-03-21T16:21:48.306Z,55.13
2018-03-21T16:24:14.882Z,51.30
2018-03-21T16:26:41.300Z,67.40
2018-03-21T16:29:07.734Z,61.43
2018-03-21T16:31:34.185Z,56.00
2018-03-21T16:34:00.694Z,51.23
2018-03-21T16:36:27.153Z,52.73
2018-03-21T16:38:53.574Z,49.10
2018-03-21T16:41:20.017Z,52.70
2018-03-21T16:43:46.355Z,52.87
2018-03-21T16:46:12.801Z,52.37
2018-03-21T16:48:39.233Z,54.97
2018-03-21T16:51:05.686Z,60.10
2018-03-21T16:53:32.301Z,48.63
2018-03-21T16:55:58.706Z,49.67
2018-03-21T16:58:25.181Z,47.13
2018-03-21T17:00:51.650Z,49.03
2018-03-21T17:03:18.135Z,56.40
2018-03-21T17:05:44.543Z,50.23
2018-03-21T17:08:10.996Z,64.77
2018-03-21T17:10:37.462Z,76.90
2018-03-21T17:13:03.898Z,68.60
2018-03-21T17:15:30.398Z,72.27
2018-03-21T17:17:56.841Z,72.27
2018-03-21T17:20:23.250Z,67.00
2018-03-21T17:22:49.634Z,64.90
2018-03-21T17:25:16.074Z,61.57
2018-03-21T17:27:42.579Z,63.83
2018-03-21T17:30:09.054Z,70.33
2018-03-21T17:32:35.407Z,79.20
2018-03-21T17:35:01.798Z,99.83
2018-03-21T17:37:28.195Z,102.33
2018-03-21T17:39:54.730Z,90.30
2018-03-21T17:42:21.217Z,94.50
2018-03-21T17:44:47.681Z,107.50
2018-03-21T17:47:14.091Z,129.13
2018-03-21T17:49:40.489Z,128.67
2018-03-21T17:52:06.906Z,118.20
2018-03-21T17:54:33.387Z,103.77
2018-03-21T17:56:59.900Z,104.90
2018-03-21T17:59:26.259Z,96.60
2018-03-21T18:01:52.694Z,84.73
2018-03-21T18:04:19.152Z,98.53
2018-03-21T18:06:45.626Z,106.13
2018-03-21T18:09:12.053Z,113.33
2018-03-21T18:11:38.445Z,120.37
2018-03-21T18:14:04.881Z,114.23
2018-03-21T18:16:31.317Z,107.20
2018-03-21T18:18:57.748Z,128.70
2018-03-21T18:21:24.159Z,100.50
2018-03-21T18:23:50.633Z,91.43
2018-03-21T18:26:17.026Z,77.33
2018-03-21T18:28:43.533Z,78.57
2018-03-21T18:31:10.322Z,73.57
2018-03-21T18:33:36.706Z,71.93
2018-03-21T18:36:03.139Z,61.63
2018-03-21T18:38:29.649Z,68.63
2018-03-21T18:40:56.090Z,62.67
2018-03-21T18:43:22.636Z,60.57
2018-03-21T18:45:49.062Z,58.03
2018-03-21T18:48:15.453Z,60.53
2018-03-21T18:50:41.841Z,61.43
2018-03-21T18:53:08.302Z,69.60
2018-03-21T18:55:34.714Z,68.97
2018-03-21T18:58:01.213Z,58.57
2018-03-21T19:00:27.622Z,44.97
2018-03-21T19:02:54.031Z,36.73
2018-03-21T19:05:20.414Z,37.33
2018-03-21T19:07:46.891Z,32.77
2018-03-21T19:10:13.335Z,26.73
2018-03-21T19:12:39.722Z,26.83
2018-03-21T19:15:06.187Z,26.97
2018-03-21T19:17:32.719Z,30.80
2018-03-21T19:19:59.152Z,32.20
2018-03-21T19:22:25.589Z,33.80
2018-03-21T19:24:52.082Z,27.87
2018-03-21T19:27:18.497Z,35.13
2018-03-21T19:29:44.904Z,32.43
2018-03-21T19:32:11.369Z,31.93
2018-03-21T19:34:37.797Z,31.50
2018-03-21T19:37:04.460Z,31.30
2018-03-21T19:39:30.862Z,30.70
2018-03-21T19:41:57.294Z,27.83
2018-03-21T19:44:23.940Z,26.50
2018-03-21T19:46:50.507Z,28.17
2018-03-21T19:49:16.930Z,28.87
2018-03-21T19:51:43.599Z,29.67
2018-03-21T19:54:10.447Z,28.37
2018-03-21T19:56:36.853Z,29.47
2018-03-21T19:59:03.351Z,31.53
2018-03-21T20:01:32.210Z,32.80
2018-03-21T20:03:58.758Z,31.77
2018-03-21T20:06:25.146Z,32.00
2018-03-21T20:08:51.576Z,33.97
2018-03-21T20:11:18.165Z,31.60
2018-03-21T20:13:44.882Z,33.40
2018-03-21T20:16:11.368Z,33.57
2018-03-21T20:18:37.715Z,34.93
2018-03-21T20:21:04.075Z,33.40
2018-03-21T20:23:30.554Z,39.67
2018-03-21T20:25:58.793Z,35.63
2018-03-21T20:28:25.370Z,34.80
2018-03-21T20:30:51.869Z,47.53
2018-03-21T20:33:18.302Z,38.33
2018-03-21T20:35:44.713Z,33.00
2018-03-21T20:38:11.216Z,31.73
2018-03-21T20:40:37.747Z,48.83
2018-03-21T20:43:04.182Z,30.67
2018-03-21T20:45:30.641Z,29.83
2018-03-21T20:47:57.142Z,27.90
2018-03-21T20:50:23.575Z,27.00
2018-03-21T20:52:50.014Z,30.50
2018-03-21T20:55:16.462Z,29.93
2018-03-21T20:57:42.882Z,28.70
2018-03-21T21:00:09.254Z,28.00
2018-03-21T21:02:35.698Z,33.03
2018-03-21T21:05:02.101Z,21.37
2018-03-21T21:07:28.643Z,23.20
2018-03-21T21:09:55.218Z,21.73
2018-03-21T21:12:21.600Z,26.73
2018-03-21T21:14:48.322Z,21.40
2018-03-21T21:17:14.725Z,23.73
2018-03-21T21:19:41.353Z,19.97
2018-03-21T21:22:07.897Z,18.67
2018-03-21T21:24:34.318Z,21.00
2018-03-21T21:27:00.800Z,19.63
2018-03-21T21:29:27.269Z,22.37
2018-03-21T21:31:53.660Z,18.27
2018-03-21T21:34:20.193Z,18.17
2018-03-21T21:36:46.669Z,18.67
2018-03-21T21:39:13.079Z,17.50
2018-03-21T21:41:39.597Z,17.90
2018-03-21T21:44:06.024Z,16.03
2018-03-21T21:46:32.504Z,18.73
2018-03-21T21:48:58.930Z,17.97
2018-03-21T21:51:25.383Z,17.70
2018-03-21T21:53:51.761Z,15.87
2018-03-21T21:56:18.162Z,15.30
2018-03-21T21:58:44.614Z,16.00
2018-03-21T22:01:10.972Z,17.33
2018-03-21T22:03:37.393Z,18.50
2018-03-21T22:06:03.806Z,21.67
2018-03-21T22:08:30.271Z,21.13
2018-03-21T22:10:56.614Z,18.87
2018-03-21T22:13:22.981Z,17.73
2018-03-21T22:15:49.471Z,18.57
2018-03-21T22:18:15.869Z,17.63
2018-03-21T22:20:42.256Z,13.37
2018-03-21T22:23:08.609Z,17.80
2018-03-21T22:25:34.997Z,16.13
2018-03-21T22:28:01.464Z,19.17
2018-03-21T22:30:27.854Z,15.67
2018-03-21T22:32:54.303Z,15.00
2018-03-21T22:35:20.773Z,16.80
2018-03-21T22:37:47.141Z,17.00
2018-03-21T22:40:13.521Z,14.30
2018-03-21T22:42:39.941Z,14.93
2018-03-21T22:45:06.397Z,14.47
2018-03-21T22:47:32.905Z,13.43
2018-03-21T22:49:59.285Z,15.13
2018-03-21T22:52:25.717Z,17.40
2018-03-21T22:54:52.150Z,17.00
2018-03-21T22:57:18.650Z,13.97
2018-03-21T22:59:45.053Z,15.17
2018-03-21T23:02:11.510Z,14.37
2018-03-21T23:04:37.930Z,14.90
2018-03-21T23:07:04.277Z,13.43
2018-03-21T23:09:30.644Z,16.93
2018-03-21T23:11:56.997Z,15.57
2018-03-21T23:14:23.427Z,13.80
2018-03-21T23:16:49.833Z,14.50
2018-03-21T23:19:16.237Z,12.20
2018-03-21T23:21:42.598Z,15.90
2018-03-21T23:24:09.001Z,15.30
2018-03-21T23:26:35.682Z,13.77
2018-03-21T23:29:02.037Z,12.80
2018-03-21T23:31:28.450Z,13.53
2018-03-21T23:33:54.846Z,16.00
2018-03-21T23:36:21.268Z,15.50
2018-03-21T23:38:47.677Z,14.07
2018-03-21T23:41:14.178Z,15.30
2018-03-21T23:43:40.572Z,14.57
2018-03-21T23:46:06.992Z,16.17
2018-03-21T23:48:34.230Z,15.83
2018-03-21T23:51:00.767Z,15.30
2018-03-21T23:53:27.239Z,16.43
2018-03-21T23:55:53.921Z,16.53
2018-03-21T23:58:20.508Z,17.80
